Lana Louise — WDC2702 — position and weather

sailwx.info

Track history (hours):
 
Tides and Currents Weather Stations Pressure Air Temp Water Temp Dewpoint Dewpoint Depression Visibility Wind Speed Wind Dir Waves Ship Positions

Lana Louise

Owner: Kirby Inland Marine LP, Houston, TX. More information available from US FCC via Universal Licensing System and Coast Guard Vessel Documentation Center.

Last reported at 2018-Feb-24 17:02 UTC. Time now 2018-Feb-25 01:40 UTC.
Position N 29°29' W 094°52'.

Length 76 m; draft 2.6 m.

Type: . MMSI: 366996580.

Date/timePositionNaut miles runAvg speedWind from/ knotsBaromVisibWave heightAir tempDewpointWater temp
2018-Feb-24 17:02N 29°29' W 094°52'0 4.7
2018-Feb-24 16:56N 29°29' W 094°52'2 5.8
2018-Feb-24 16:30N 29°32' W 094°53'3 6.0
2018-Feb-24 16:00N 29°34' W 094°55'3 5.6
2018-Feb-24 15:30N 29°36' W 094°57'3 6.3
2018-Feb-24 15:00N 29°39' W 094°58'3 6.6
2018-Feb-24 14:30N 29°42' W 095°01'5 0.9
2018-Feb-24 08:29N 29°45' W 095°06'1 1.1
2018-Feb-24 07:37N 29°46' W 095°06'0 0.1
2018-Feb-24 04:39N 29°46' W 095°06'1 0.4
2018-Feb-24 01:35N 29°45' W 095°06'0 0.7
2018-Feb-24 01:25N 29°45' W 095°06'1 1.2
2018-Feb-24 00:35N 29°46' W 095°05'1 0.9
2018-Feb-23 23:43N 29°46' W 095°05'0 0.2
2018-Feb-23 21:28N 29°46' W 095°05'1 0.8
2018-Feb-23 19:38N 29°45' W 095°06'1 4.6
2018-Feb-23 19:29N 29°45' W 095°06'0 0.5
2018-Feb-23 18:55N 29°45' W 095°06'2 3.6
2018-Feb-23 18:29N 29°45' W 095°04'3 5.4
2018-Feb-23 17:58N 29°44' W 095°01'0 0.1
2018-Feb-23 17:30N 29°44' W 095°01'0 0.0
2018-Feb-23 06:13N 29°44' W 095°01'0 0.9
2018-Feb-23 05:43N 29°44' W 095°02'1 6.0
2018-Feb-23 05:28N 29°44' W 095°03'2 0.8
2018-Feb-23 02:46N 29°46' W 095°05'0 0.1
2018-Feb-23 00:15N 29°45' W 095°06'5 0.4
2018-Feb-22 10:17N 29°42' W 095°01'2 6.0
2018-Feb-22 10:00N 29°42' W 094°59'2 3.6
2018-Feb-22 09:28N 29°41' W 094°57'1 0.5
2018-Feb-22 06:15N 29°40' W 094°56'0 0.0
2018-Feb-22 05:54N 29°40' W 094°56'0 0.0
2018-Feb-22 05:26N 29°40' W 094°56'0 0.3
2018-Feb-22 05:00N 29°40' W 094°56'1 2.1
2018-Feb-22 04:30N 29°41' W 094°57'2 3.3
2018-Feb-22 04:00N 29°41' W 094°59'3 4.8
2018-Feb-22 03:28N 29°43' W 095°01'2 1.0
2018-Feb-22 01:26N 29°44' W 095°03'2 5.1
2018-Feb-22 01:00N 29°42' W 095°01'3 5.2
2018-Feb-22 00:30N 29°41' W 094°58'2 4.6
2018-Feb-21 23:59N 29°40' W 094°56'1 1.5
2018-Feb-21 23:29N 29°41' W 094°57'1 2.4
2018-Feb-21 23:00N 29°41' W 094°58'1 1.2
2018-Feb-21 22:30N 29°41' W 094°58'0 0.0
2018-Feb-21 21:53N 29°41' W 094°58'8 0.2
2018-Feb-20 01:07N 29°45' W 095°06'0 0.1
2018-Feb-19 23:14N 29°46' W 095°05'0 0.0
2018-Feb-19 13:27N 29°45' W 095°06'0 0.0
2018-Feb-19 10:50N 29°45' W 095°06'0 0.1
2018-Feb-19 09:47N 29°45' W 095°06'0 0.0
2018-Feb-19 09:29N 29°45' W 095°06'0 0.0
2018-Feb-19 08:44N 29°45' W 095°06'0 0.0
2018-Feb-19 08:23N 29°45' W 095°06'0 0.0
2018-Feb-19 07:59N 29°45' W 095°06'0 0.0
2018-Feb-19 07:29N 29°45' W 095°06'0 0.0
2018-Feb-19 06:25N 29°45' W 095°06'0 0.0
2018-Feb-18 21:10N 29°46' W 095°06'3 0.1
2018-Feb-17 21:14N 29°44' W 095°09'2 4.7
2018-Feb-17 20:50N 29°44' W 095°07'2 4.6
2018-Feb-17 20:29N 29°45' W 095°06'0 0.5
2018-Feb-17 19:37N 29°46' W 095°05'1 5.9
2018-Feb-17 19:30N 29°46' W 095°05'1 0.0
2018-Feb-16 14:02N 29°47' W 095°04'0 0.1
2018-Feb-16 13:58N 29°47' W 095°04'0 0.0
2018-Feb-16 04:54N 29°47' W 095°04'0 0.0
2018-Feb-16 04:30N 29°47' W 095°04'0 0.0
2018-Feb-16 03:54N 29°47' W 095°04'0 0.0
2018-Feb-16 03:21N 29°47' W 095°04'0 0.0
2018-Feb-16 02:45N 29°47' W 095°04'2 0.1
2018-Feb-15 10:00N 29°45' W 095°06'1 0.1
2018-Feb-15 04:37N 29°45' W 095°06'0 0.0
2018-Feb-15 04:13N 29°45' W 095°06'1 0.2
2018-Feb-14 23:30N 29°44' W 095°07'1 0.7
2018-Feb-14 22:32N 29°45' W 095°06'0 5.5
2018-Feb-14 22:29N 29°45' W 095°06'1 0.2
2018-Feb-14 18:10N 29°46' W 095°05'  
Track history (hours):
 
Tides and Currents Weather Stations Pressure Air Temp Water Temp Dewpoint Dewpoint Depression Visibility Wind Speed Wind Dir Waves Ship Positions

Lana Louise

Owner: Kirby Inland Marine LP, Houston, TX. More information available from US FCC via Universal Licensing System and Coast Guard Vessel Documentation Center.

Last reported at 2018-Feb-24 17:02 UTC. Time now 2018-Feb-25 01:40 UTC.
Position N 29°29' W 094°52'.

Length 76 m; draft 2.6 m.

Type: . MMSI: 366996580.

Date/timePositionNaut miles runAvg speedWind from/ knotsBaromVisibWave heightAir tempDewpointWater temp
2018-Feb-24 17:02N 29°29' W 094°52'0 4.7
2018-Feb-24 16:56N 29°29' W 094°52'2 5.8
2018-Feb-24 16:30N 29°32' W 094°53'3 6.0
2018-Feb-24 16:00N 29°34' W 094°55'3 5.6
2018-Feb-24 15:30N 29°36' W 094°57'3 6.3
2018-Feb-24 15:00N 29°39' W 094°58'3 6.6
2018-Feb-24 14:30N 29°42' W 095°01'5 0.9
2018-Feb-24 08:29N 29°45' W 095°06'1 1.1
2018-Feb-24 07:37N 29°46' W 095°06'0 0.1
2018-Feb-24 04:39N 29°46' W 095°06'1 0.4
2018-Feb-24 01:35N 29°45' W 095°06'0 0.7
2018-Feb-24 01:25N 29°45' W 095°06'1 1.2
2018-Feb-24 00:35N 29°46' W 095°05'1 0.9
2018-Feb-23 23:43N 29°46' W 095°05'0 0.2
2018-Feb-23 21:28N 29°46' W 095°05'1 0.8
2018-Feb-23 19:38N 29°45' W 095°06'1 4.6
2018-Feb-23 19:29N 29°45' W 095°06'0 0.5
2018-Feb-23 18:55N 29°45' W 095°06'2 3.6
2018-Feb-23 18:29N 29°45' W 095°04'3 5.4
2018-Feb-23 17:58N 29°44' W 095°01'0 0.1
2018-Feb-23 17:30N 29°44' W 095°01'0 0.0
2018-Feb-23 06:13N 29°44' W 095°01'0 0.9
2018-Feb-23 05:43N 29°44' W 095°02'1 6.0
2018-Feb-23 05:28N 29°44' W 095°03'2 0.8
2018-Feb-23 02:46N 29°46' W 095°05'0 0.1
2018-Feb-23 00:15N 29°45' W 095°06'5 0.4
2018-Feb-22 10:17N 29°42' W 095°01'2 6.0
2018-Feb-22 10:00N 29°42' W 094°59'2 3.6
2018-Feb-22 09:28N 29°41' W 094°57'1 0.5
2018-Feb-22 06:15N 29°40' W 094°56'0 0.0
2018-Feb-22 05:54N 29°40' W 094°56'0 0.0
2018-Feb-22 05:26N 29°40' W 094°56'0 0.3
2018-Feb-22 05:00N 29°40' W 094°56'1 2.1
2018-Feb-22 04:30N 29°41' W 094°57'2 3.3
2018-Feb-22 04:00N 29°41' W 094°59'3 4.8
2018-Feb-22 03:28N 29°43' W 095°01'2 1.0
2018-Feb-22 01:26N 29°44' W 095°03'2 5.1
2018-Feb-22 01:00N 29°42' W 095°01'3 5.2
2018-Feb-22 00:30N 29°41' W 094°58'2 4.6
2018-Feb-21 23:59N 29°40' W 094°56'1 1.5
2018-Feb-21 23:29N 29°41' W 094°57'1 2.4
2018-Feb-21 23:00N 29°41' W 094°58'1 1.2
2018-Feb-21 22:30N 29°41' W 094°58'0 0.0
2018-Feb-21 21:53N 29°41' W 094°58'8 0.2
2018-Feb-20 01:07N 29°45' W 095°06'0 0.1
2018-Feb-19 23:14N 29°46' W 095°05'0 0.0
2018-Feb-19 13:27N 29°45' W 095°06'0 0.0
2018-Feb-19 10:50N 29°45' W 095°06'0 0.1
2018-Feb-19 09:47N 29°45' W 095°06'0 0.0
2018-Feb-19 09:29N 29°45' W 095°06'0 0.0
2018-Feb-19 08:44N 29°45' W 095°06'0 0.0
2018-Feb-19 08:23N 29°45' W 095°06'0 0.0
2018-Feb-19 07:59N 29°45' W 095°06'0 0.0
2018-Feb-19 07:29N 29°45' W 095°06'0 0.0
2018-Feb-19 06:25N 29°45' W 095°06'0 0.0
2018-Feb-18 21:10N 29°46' W 095°06'3 0.1
2018-Feb-17 21:14N 29°44' W 095°09'2 4.7
2018-Feb-17 20:50N 29°44' W 095°07'2 4.6
2018-Feb-17 20:29N 29°45' W 095°06'0 0.5
2018-Feb-17 19:37N 29°46' W 095°05'1 5.9
2018-Feb-17 19:30N 29°46' W 095°05'1 0.0
2018-Feb-16 14:02N 29°47' W 095°04'0 0.1
2018-Feb-16 13:58N 29°47' W 095°04'0 0.0
2018-Feb-16 04:54N 29°47' W 095°04'0 0.0
2018-Feb-16 04:30N 29°47' W 095°04'0 0.0
2018-Feb-16 03:54N 29°47' W 095°04'0 0.0
2018-Feb-16 03:21N 29°47' W 095°04'0 0.0
2018-Feb-16 02:45N 29°47' W 095°04'2 0.1
2018-Feb-15 10:00N 29°45' W 095°06'1 0.1
2018-Feb-15 04:37N 29°45' W 095°06'0 0.0
2018-Feb-15 04:13N 29°45' W 095°06'1 0.2
2018-Feb-14 23:30N 29°44' W 095°07'1 0.7
2018-Feb-14 22:32N 29°45' W 095°06'0 5.5
2018-Feb-14 22:29N 29°45' W 095°06'1 0.2
2018-Feb-14 18:10N 29°46' W 095°05'  

Dump ship's entire track history